Time;durP1;ratioP1;P1;durP2;ratioP2;P2;SDS_P1;SDS_P2;PMS_P1;PMS_P2;Temp;Humidity;BMP_temperature;BMP_pressure;BME280_temperature;BME280_humidity;BME280_pressure;Samples;Min_cycle;Max_cycle;Signal;HPM_P1;HPM_P2
2024/01/06 00:00:23;;;;;;;262.90;104.75;;;4.50;99.90;;;;;;5039051;28;20075;-77
2024/01/06 00:02:56;;;;;;;256.92;109.35;;;4.40;99.90;;;;;;5031524;28;20045;-68
2024/01/06 00:05:24;;;;;;;206.25;99.00;;;4.50;99.90;;;;;;5032018;28;20033;-68
2024/01/06 00:07:56;;;;;;;192.02;94.63;;;4.60;99.90;;;;;;5051547;28;20065;-79
2024/01/06 00:10:24;;;;;;;215.18;93.07;;;4.60;99.90;;;;;;5031555;28;20063;-73
2024/01/06 00:12:51;;;;;;;290.98;95.82;;;4.60;99.90;;;;;;5039963;28;20563;-80
2024/01/06 00:15:18;;;;;;;208.63;86.57;;;4.50;99.90;;;;;;5038696;28;20040;-78
2024/01/06 00:17:46;;;;;;;240.00;86.50;;;4.50;99.90;;;;;;5035570;28;20506;-73
2024/01/06 00:20:13;;;;;;;188.95;86.30;;;4.30;99.90;;;;;;5040720;28;20033;-76
2024/01/06 00:22:42;;;;;;;166.27;79.30;;;4.30;99.90;;;;;;5033159;28;20043;-80
2024/01/06 00:25:11;;;;;;;184.45;80.47;;;4.40;99.90;;;;;;5030022;28;20039;-79
2024/01/06 00:27:38;;;;;;;207.93;80.57;;;4.20;99.90;;;;;;5039444;28;20116;-74
2024/01/06 00:30:06;;;;;;;193.27;76.28;;;4.00;99.90;;;;;;5037963;28;20384;-77
2024/01/06 00:32:33;;;;;;;203.80;73.35;;;3.80;99.90;;;;;;5034687;28;20039;-70
2024/01/06 00:35:04;;;;;;;172.60;78.10;;;4.00;99.90;;;;;;5037969;28;20537;-77
2024/01/06 00:37:32;;;;;;;223.98;80.07;;;4.00;99.90;;;;;;5040177;28;20029;-76
2024/01/06 00:40:00;;;;;;;301.00;86.28;;;3.90;99.90;;;;;;5037969;28;20396;-74
2024/01/06 00:42:27;;;;;;;215.43;83.40;;;3.60;99.90;;;;;;5021764;28;20103;-77
2024/01/06 00:44:54;;;;;;;237.80;86.35;;;3.80;99.90;;;;;;5034660;28;20030;-78
2024/01/06 00:47:24;;;;;;;197.38;85.22;;;3.90;99.90;;;;;;5037947;28;20034;-69
2024/01/06 00:49:51;;;;;;;238.18;86.63;;;4.10;99.90;;;;;;5038125;28;20111;-73
2024/01/06 00:52:18;;;;;;;176.30;82.22;;;4.10;99.90;;;;;;5033443;28;20414;-76
2024/01/06 00:54:47;;;;;;;255.75;85.25;;;4.20;99.90;;;;;;5040652;28;20592;-77
2024/01/06 00:57:14;;;;;;;184.15;81.93;;;4.10;99.90;;;;;;5039173;28;20039;-75
2024/01/06 00:59:41;;;;;;;225.90;86.00;;;4.10;99.90;;;;;;5026152;28;20029;-76
2024/01/06 01:02:09;;;;;;;216.55;84.55;;;4.10;99.90;;;;;;5028169;28;20041;-74
2024/01/06 01:04:36;;;;;;;498.73;241.10;;;3.90;99.90;;;;;;5033563;28;20029;-74
2024/01/06 01:07:04;;;;;;;322.63;144.70;;;4.20;99.90;;;;;;5031506;28;20379;-78
2024/01/06 01:09:31;;;;;;;211.93;96.20;;;4.30;99.90;;;;;;5037498;28;20029;-78
2024/01/06 01:11:58;;;;;;;190.48;83.90;;;4.30;99.90;;;;;;5030378;28;20108;-88
2024/01/06 01:14:25;;;;;;;185.38;83.43;;;4.40;99.90;;;;;;5041738;28;20041;-91
2024/01/06 01:16:53;;;;;;;172.90;81.63;;;4.40;99.90;;;;;;5033826;28;20033;-77
2024/01/06 01:19:20;;;;;;;184.23;80.47;;;4.50;99.90;;;;;;5034720;28;20033;-89
2024/01/06 01:21:48;;;;;;;174.77;78.43;;;4.70;99.90;;;;;;5038969;28;20037;-89
2024/01/06 01:24:15;;;;;;;175.98;75.35;;;4.70;99.90;;;;;;5039212;28;20041;-83
2024/01/06 01:26:42;;;;;;;171.52;74.60;;;4.30;99.90;;;;;;5036287;28;20042;-77
2024/01/06 01:29:10;;;;;;;174.27;82.18;;;4.40;99.90;;;;;;5034761;28;20044;-74
2024/01/06 01:31:37;;;;;;;175.68;76.80;;;4.30;99.90;;;;;;5033915;28;20117;-75
2024/01/06 01:34:04;;;;;;;184.23;75.85;;;4.40;99.90;;;;;;5030579;28;20037;-68
2024/01/06 01:36:32;;;;;;;178.30;78.38;;;4.20;99.90;;;;;;5039211;28;20032;-70
2024/01/06 01:38:59;;;;;;;154.10;76.45;;;4.10;99.90;;;;;;5033679;28;20041;-73
2024/01/06 01:41:27;;;;;;;162.02;75.43;;;4.20;99.90;;;;;;5035217;28;20037;-70
2024/01/06 01:43:58;;;;;;;162.18;73.70;;;4.20;99.90;;;;;;5027077;28;20041;-73
2024/01/06 01:46:26;;;;;;;156.00;70.72;;;4.20;99.90;;;;;;5037744;28;20037;-69
2024/01/06 01:48:55;;;;;;;158.18;70.97;;;4.20;99.90;;;;;;5031289;28;20483;-75
2024/01/06 01:51:26;;;;;;;160.00;71.13;;;4.20;99.90;;;;;;5034400;28;20025;-70
2024/01/06 01:53:54;;;;;;;170.75;70.25;;;4.00;99.90;;;;;;5034458;28;20411;-73
2024/01/06 01:56:22;;;;;;;151.57;72.90;;;4.10;99.90;;;;;;5037771;28;20037;-71
2024/01/06 01:58:49;;;;;;;156.30;71.28;;;4.10;99.90;;;;;;5031989;28;20516;-69
2024/01/06 02:01:17;;;;;;;157.55;72.50;;;4.00;99.90;;;;;;5039953;28;20033;-68
2024/01/06 02:03:45;;;;;;;162.32;70.35;;;4.00;99.90;;;;;;5036097;28;20072;-71
2024/01/06 02:06:13;;;;;;;151.65;70.72;;;4.00;99.90;;;;;;5035342;28;20068;-68
2024/01/06 02:08:41;;;;;;;169.25;69.35;;;4.00;99.90;;;;;;5034359;28;20068;-78
2024/01/06 02:11:08;;;;;;;151.88;70.68;;;4.00;99.90;;;;;;5040567;28;20045;-80
2024/01/06 02:13:36;;;;;;;157.88;68.95;;;3.90;99.90;;;;;;5038812;28;20134;-81
2024/01/06 02:16:05;;;;;;;134.63;68.47;;;4.00;99.90;;;;;;5033875;28;20037;-82
2024/01/06 02:18:32;;;;;;;152.55;71.97;;;4.10;99.90;;;;;;5031392;28;20065;-81
2024/01/06 02:21:02;;;;;;;220.18;74.20;;;4.20;99.90;;;;;;5035480;28;20033;-77
2024/01/06 02:23:29;;;;;;;143.55;67.75;;;4.00;99.90;;;;;;5041696;28;20029;-78
2024/01/06 02:25:57;;;;;;;163.00;70.57;;;4.10;99.90;;;;;;5033723;28;20042;-77
2024/01/06 02:28:24;;;;;;;170.77;70.47;;;4.20;99.90;;;;;;5037860;28;20631;-80
2024/01/06 02:30:51;;;;;;;141.40;70.50;;;4.30;99.90;;;;;;5033402;28;20379;-77
2024/01/06 02:33:19;;;;;;;156.40;71.70;;;4.00;99.90;;;;;;5038541;28;20037;-79
2024/01/06 02:35:47;;;;;;;147.82;71.47;;;4.20;99.90;;;;;;5035974;28;20045;-77
2024/01/06 02:38:14;;;;;;;144.43;70.35;;;4.30;99.90;;;;;;5043341;28;20037;-75
2024/01/06 02:40:42;;;;;;;145.55;67.25;;;4.30;99.90;;;;;;5030734;28;20022;-78
2024/01/06 02:43:10;;;;;;;145.63;70.15;;;4.30;99.90;;;;;;5038990;28;20494;-74
2024/01/06 02:45:37;;;;;;;210.18;71.22;;;4.30;99.90;;;;;;5044641;28;20071;-76
2024/01/06 02:48:05;;;;;;;183.77;68.05;;;4.10;99.90;;;;;;5040198;28;20115;-76
2024/01/06 02:50:32;;;;;;;149.48;68.13;;;3.80;99.90;;;;;;5040049;28;20112;-71
2024/01/06 02:52:59;;;;;;;144.65;68.50;;;3.80;99.90;;;;;;5037892;28;20199;-78
2024/01/06 02:55:27;;;;;;;152.02;68.13;;;4.00;99.90;;;;;;5047220;28;20029;-73
2024/01/06 02:57:54;;;;;;;143.60;68.28;;;3.80;99.90;;;;;;5031305;28;20061;-73
2024/01/06 03:00:22;;;;;;;200.68;72.75;;;3.90;99.90;;;;;;5034392;28;20126;-76
2024/01/06 03:02:49;;;;;;;173.20;68.13;;;3.80;99.90;;;;;;5041633;28;20420;-78
2024/01/06 03:05:16;;;;;;;164.48;71.32;;;3.70;99.90;;;;;;5035148;28;20046;-79
2024/01/06 03:08:04;;;;;;;161.95;70.85;;;3.80;99.90;;;;;;5038088;28;20064;-78
2024/01/06 03:10:31;;;;;;;224.48;74.45;;;3.90;99.90;;;;;;5046615;28;20404;-76
2024/01/06 03:12:58;;;;;;;166.60;71.32;;;3.70;99.90;;;;;;5040618;28;20044;-78
2024/01/06 03:15:26;;;;;;;162.40;71.28;;;3.80;99.90;;;;;;5033186;28;20041;-75
2024/01/06 03:17:53;;;;;;;145.82;71.50;;;3.90;99.90;;;;;;5032100;28;20388;-79
2024/01/06 03:20:21;;;;;;;148.77;70.75;;;4.00;99.90;;;;;;5040701;28;20055;-78
2024/01/06 03:22:49;;;;;;;133.00;69.95;;;4.00;99.90;;;;;;5042188;28;20087;-76
2024/01/06 03:25:16;;;;;;;178.05;71.97;;;4.10;99.90;;;;;;5042911;28;20471;-77
2024/01/06 03:27:43;;;;;;;138.38;67.38;;;4.10;99.90;;;;;;5039665;28;20168;-79
2024/01/06 03:30:11;;;;;;;136.60;68.95;;;3.90;99.90;;;;;;5043014;28;20102;-76
2024/01/06 03:32:39;;;;;;;147.45;68.28;;;3.90;99.90;;;;;;5039211;28;20032;-78
2024/01/06 03:35:06;;;;;;;148.48;65.50;;;3.90;99.90;;;;;;5038767;28;20053;-75
2024/01/06 03:37:34;;;;;;;144.85;68.75;;;4.00;99.90;;;;;;5038165;28;20065;-79
2024/01/06 03:40:01;;;;;;;137.68;66.80;;;3.90;99.90;;;;;;5042310;28;20116;-78
2024/01/06 03:42:28;;;;;;;142.77;66.97;;;3.80;99.90;;;;;;5039503;28;20057;-82
2024/01/06 03:44:56;;;;;;;142.43;66.28;;;3.80;99.90;;;;;;5041881;28;20408;-81
2024/01/06 03:47:23;;;;;;;137.57;66.90;;;3.70;99.90;;;;;;5039697;28;20057;-81
2024/01/06 03:49:51;;;;;;;150.32;66.80;;;3.70;99.90;;;;;;5040844;28;20110;-77
2024/01/06 03:52:19;;;;;;;140.70;68.50;;;3.80;99.90;;;;;;5036603;28;20091;-79
2024/01/06 03:54:47;;;;;;;135.50;66.43;;;3.80;99.90;;;;;;5042504;28;20115;-81
2024/01/06 03:57:14;;;;;;;142.90;63.35;;;3.70;99.90;;;;;;5042900;28;20025;-80
2024/01/06 03:59:42;;;;;;;147.60;66.20;;;3.60;99.90;;;;;;5041050;28;20037;-76
2024/01/06 04:02:09;;;;;;;205.63;69.25;;;3.80;99.90;;;;;;5024272;28;20482;-82
2024/01/06 04:04:37;;;;;;;134.07;62.10;;;3.40;99.90;;;;;;5042388;28;20365;-75
2024/01/06 04:07:05;;;;;;;124.22;64.28;;;3.50;99.90;;;;;;5038719;28;20085;-78
2024/01/06 04:09:32;;;;;;;143.15;64.75;;;3.70;99.90;;;;;;5041802;28;20431;-71
2024/01/06 04:12:00;;;;;;;125.88;61.75;;;3.40;99.90;;;;;;5035945;28;20103;-75
2024/01/06 04:14:28;;;;;;;140.52;66.80;;;3.50;99.90;;;;;;5035807;28;20112;-75
2024/01/06 04:16:56;;;;;;;141.35;64.93;;;3.70;99.90;;;;;;5036172;28;20061;-72
2024/01/06 04:19:24;;;;;;;133.55;64.25;;;3.80;99.90;;;;;;5040167;28;20443;-76
2024/01/06 04:21:51;;;;;;;127.13;63.53;;;3.80;99.90;;;;;;5041246;28;20087;-76
2024/01/06 04:24:19;;;;;;;120.80;61.30;;;3.90;99.90;;;;;;5038487;28;20065;-74
2024/01/06 04:26:47;;;;;;;145.98;61.03;;;3.90;99.90;;;;;;5036094;28;20057;-77
2024/01/06 04:29:14;;;;;;;124.85;59.35;;;3.70;99.90;;;;;;5040237;28;20029;-77
2024/01/06 04:31:42;;;;;;;112.72;59.63;;;3.70;99.90;;;;;;5040462;28;20037;-74
2024/01/06 04:34:09;;;;;;;129.73;62.53;;;3.70;99.90;;;;;;5039776;28;20034;-78
2024/01/06 04:36:37;;;;;;;124.68;60.60;;;3.80;99.90;;;;;;5043107;28;20025;-78
2024/01/06 04:39:04;;;;;;;114.15;58.33;;;3.80;99.90;;;;;;5041351;28;20104;-76
2024/01/06 04:41:31;;;;;;;109.53;59.30;;;3.70;99.90;;;;;;5043114;28;20143;-76
2024/01/06 04:43:59;;;;;;;136.35;58.63;;;3.70;99.90;;;;;;5054012;28;20045;-77
2024/01/06 04:46:26;;;;;;;121.90;60.13;;;3.60;99.90;;;;;;5039858;28;20026;-73
2024/01/06 04:48:53;;;;;;;106.53;57.60;;;3.70;99.90;;;;;;5042620;28;20072;-76
2024/01/06 04:51:21;;;;;;;115.40;58.28;;;3.80;99.90;;;;;;5039578;28;20087;-77
2024/01/06 04:53:48;;;;;;;104.88;55.13;;;3.80;99.90;;;;;;5033346;28;20041;-72
2024/01/06 04:56:15;;;;;;;128.60;54.85;;;3.70;99.90;;;;;;5041487;28;20033;-78
2024/01/06 04:58:42;;;;;;;118.15;56.28;;;3.50;99.90;;;;;;5036860;28;20087;-77
2024/01/06 05:01:10;;;;;;;128.50;55.47;;;3.60;99.90;;;;;;5041221;28;20047;-77
2024/01/06 05:03:37;;;;;;;105.97;57.40;;;3.60;99.90;;;;;;5041121;28;20037;-78
2024/01/06 05:06:04;;;;;;;113.65;57.42;;;3.60;99.90;;;;;;5034232;28;20062;-76
2024/01/06 05:08:32;;;;;;;108.47;55.03;;;3.70;99.90;;;;;;5038333;28;20033;-76
2024/01/06 05:11:00;;;;;;;107.60;55.97;;;3.70;99.90;;;;;;5037536;28;20046;-78
2024/01/06 05:13:27;;;;;;;110.93;57.42;;;3.80;99.90;;;;;;5026564;28;20114;-74
2024/01/06 05:15:54;;;;;;;112.25;56.35;;;3.70;99.90;;;;;;5042185;28;20037;-78
2024/01/06 05:18:22;;;;;;;107.57;57.45;;;3.60;99.90;;;;;;5040730;28;20047;-72
2024/01/06 05:20:49;;;;;;;99.43;54.90;;;3.40;99.90;;;;;;5039640;28;20029;-78
2024/01/06 05:23:16;;;;;;;107.80;54.63;;;3.60;99.90;;;;;;5039691;28;20041;-81
2024/01/06 05:25:44;;;;;;;106.53;58.75;;;3.60;99.90;;;;;;5036864;28;20037;-78
2024/01/06 05:28:11;;;;;;;101.45;55.85;;;3.60;99.90;;;;;;5033729;28;20069;-81
2024/01/06 05:30:38;;;;;;;104.72;54.85;;;3.60;99.90;;;;;;5038560;28;20106;-79
2024/01/06 05:33:09;;;;;;;103.32;54.50;;;3.50;99.90;;;;;;5034895;28;20037;-71
2024/01/06 05:35:40;;;;;;;104.22;53.47;;;3.40;99.90;;;;;;5041473;28;20124;-76
2024/01/06 05:38:08;;;;;;;95.20;51.85;;;3.30;99.90;;;;;;5037472;28;20043;-77
2024/01/06 05:40:35;;;;;;;116.10;56.22;;;3.20;99.90;;;;;;5057813;28;20061;-76
2024/01/06 05:43:02;;;;;;;95.15;52.50;;;3.30;99.90;;;;;;5033832;28;20387;-72
2024/01/06 05:45:30;;;;;;;121.15;53.03;;;3.50;99.90;;;;;;5037154;28;20033;-78
2024/01/06 05:47:57;;;;;;;106.22;51.72;;;3.20;99.90;;;;;;5030331;28;20083;-76
2024/01/06 05:50:25;;;;;;;87.10;51.13;;;3.10;99.90;;;;;;5035648;28;20040;-74
2024/01/06 05:52:52;;;;;;;93.30;52.25;;;3.20;99.90;;;;;;5038564;28;20136;-75
2024/01/06 05:55:21;;;;;;;93.88;50.08;;;3.30;99.90;;;;;;5055916;28;20476;-73
2024/01/06 05:57:48;;;;;;;84.10;49.78;;;3.40;99.90;;;;;;5037474;28;20436;-79
2024/01/06 06:00:16;;;;;;;86.03;47.97;;;3.50;99.90;;;;;;5035715;28;20053;-80
2024/01/06 06:02:44;;;;;;;90.00;53.30;;;3.20;99.90;;;;;;5036486;28;20116;-81
2024/01/06 06:05:11;;;;;;;95.60;52.85;;;3.30;99.90;;;;;;5035729;28;20033;-79
2024/01/06 06:07:39;;;;;;;88.60;49.58;;;3.40;99.90;;;;;;5032232;28;20034;-78
2024/01/06 06:10:11;;;;;;;106.18;51.30;;;3.30;99.90;;;;;;5054615;28;20049;-76
2024/01/06 06:12:38;;;;;;;87.05;50.83;;;3.30;99.90;;;;;;5037707;28;20087;-80
2024/01/06 06:15:06;;;;;;;93.40;49.78;;;3.40;99.90;;;;;;5036307;28;20045;-77
2024/01/06 06:17:34;;;;;;;84.97;49.05;;;3.50;99.90;;;;;;5023912;28;20080;-82
2024/01/06 06:20:01;;;;;;;87.72;47.00;;;3.60;99.90;;;;;;5032744;28;20044;-72
2024/01/06 06:22:32;;;;;;;132.23;50.97;;;3.70;99.90;;;;;;5034636;28;20427;-78
2024/01/06 06:24:59;;;;;;;84.07;47.92;;;3.40;99.90;;;;;;5026691;28;20031;-86
2024/01/06 06:27:27;;;;;;;89.25;50.20;;;3.20;99.90;;;;;;5032937;28;20028;-77
2024/01/06 06:29:56;;;;;;;113.45;48.95;;;3.30;99.90;;;;;;5038122;28;20410;-81
2024/01/06 06:32:24;;;;;;;92.13;48.65;;;3.20;99.90;;;;;;5035031;28;20037;-81
2024/01/06 06:34:52;;;;;;;94.22;51.65;;;3.30;99.90;;;;;;5037666;28;20544;-71
2024/01/06 06:37:20;;;;;;;93.70;51.42;;;3.50;99.90;;;;;;5020771;28;20115;-76
2024/01/06 06:39:48;;;;;;;161.57;80.32;;;3.50;99.90;;;;;;5034702;28;20042;-81
2024/01/06 06:42:16;;;;;;;328.08;165.60;;;3.60;99.90;;;;;;5033304;28;20036;-74
2024/01/06 06:44:43;;;;;;;120.35;62.88;;;3.90;99.90;;;;;;5037864;28;20033;-81
2024/01/06 06:47:10;;;;;;;238.07;117.35;;;3.60;99.90;;;;;;5027720;28;20060;-86
2024/01/06 06:49:38;;;;;;;97.97;57.67;;;3.80;99.90;;;;;;5040094;28;20066;-80
2024/01/06 06:52:07;;;;;;;100.40;53.05;;;3.70;99.90;;;;;;5042046;28;20033;-93
2024/01/06 06:54:34;;;;;;;101.95;52.03;;;3.70;99.90;;;;;;5027657;28;20077;-78
2024/01/06 06:57:01;;;;;;;94.82;51.10;;;3.80;99.90;;;;;;5033214;28;20042;-76
2024/01/06 06:59:29;;;;;;;89.40;49.40;;;3.80;99.90;;;;;;5034356;28;20060;-74
2024/01/06 07:01:56;;;;;;;88.97;51.13;;;3.80;99.90;;;;;;5033833;28;20034;-75
2024/01/06 07:04:25;;;;;;;96.13;52.75;;;3.80;99.90;;;;;;5033741;28;20225;-87
2024/01/06 07:06:53;;;;;;;101.95;52.70;;;3.70;99.90;;;;;;5037303;28;20046;-77
2024/01/06 07:09:23;;;;;;;95.80;53.33;;;3.50;99.90;;;;;;5036056;28;20030;-86
2024/01/06 07:11:51;;;;;;;99.13;52.13;;;3.60;99.90;;;;;;5028774;28;20048;-77
2024/01/06 07:14:18;;;;;;;94.70;52.78;;;3.60;99.90;;;;;;5030369;28;20405;-75
2024/01/06 07:16:45;;;;;;;111.32;56.55;;;3.70;99.90;;;;;;5039342;28;20475;-75
2024/01/06 07:19:13;;;;;;;97.13;51.83;;;3.80;99.90;;;;;;5039526;28;20069;-70
2024/01/06 07:21:40;;;;;;;91.55;51.13;;;3.90;99.90;;;;;;5042013;28;20495;-82
2024/01/06 07:24:08;;;;;;;98.20;53.97;;;3.70;99.90;;;;;;5033976;28;20534;-77
2024/01/06 07:26:36;;;;;;;99.30;52.75;;;3.80;99.90;;;;;;5027909;28;20034;-74
2024/01/06 07:29:03;;;;;;;125.75;67.90;;;3.90;99.90;;;;;;5037370;28;20037;-79
2024/01/06 07:31:31;;;;;;;165.98;86.30;;;4.00;99.90;;;;;;5040613;28;20029;-76
2024/01/06 07:33:58;;;;;;;105.45;54.53;;;4.30;99.90;;;;;;5033030;28;20045;-78
2024/01/06 07:36:26;;;;;;;96.55;53.33;;;4.10;99.90;;;;;;5032208;28;20095;-77
2024/01/06 07:38:53;;;;;;;87.03;52.42;;;4.00;99.90;;;;;;5040924;28;20037;-78
2024/01/06 07:41:22;;;;;;;87.45;51.20;;;4.10;99.90;;;;;;5035817;28;20579;-81
2024/01/06 07:43:49;;;;;;;95.80;51.45;;;4.20;99.90;;;;;;5033626;28;20378;-78
2024/01/06 07:46:17;;;;;;;89.60;51.40;;;4.20;99.90;;;;;;5036865;28;20473;-77
2024/01/06 07:48:46;;;;;;;95.32;51.38;;;4.10;99.90;;;;;;5037168;28;20441;-77
2024/01/06 07:51:14;;;;;;;89.47;50.53;;;4.20;99.90;;;;;;5037720;28;20042;-75
2024/01/06 07:53:42;;;;;;;89.45;51.35;;;4.30;99.90;;;;;;5033500;28;20045;-85
2024/01/06 07:56:09;;;;;;;90.85;52.30;;;4.30;99.90;;;;;;5044020;28;20083;-76
2024/01/06 07:58:37;;;;;;;93.40;53.50;;;4.20;99.90;;;;;;5024012;28;20041;-76
2024/01/06 08:01:04;;;;;;;88.82;49.92;;;4.20;99.90;;;;;;5035146;28;20867;-76
2024/01/06 08:03:31;;;;;;;93.13;53.67;;;4.00;99.90;;;;;;5041003;28;20033;-75
2024/01/06 08:05:59;;;;;;;92.03;50.83;;;4.20;99.90;;;;;;5032149;28;20128;-74
2024/01/06 08:08:27;;;;;;;117.28;52.05;;;4.30;99.90;;;;;;5039315;28;20230;-73
2024/01/06 08:10:54;;;;;;;94.85;51.05;;;3.90;99.90;;;;;;5042689;28;20144;-76
2024/01/06 08:13:21;;;;;;;98.32;52.00;;;3.90;99.90;;;;;;5045456;28;20560;-70
2024/01/06 08:15:48;;;;;;;102.22;51.25;;;4.00;99.90;;;;;;5041271;28;20096;-74
2024/01/06 08:18:16;;;;;;;101.93;53.00;;;3.90;99.90;;;;;;5048088;28;20087;-76
2024/01/06 08:20:43;;;;;;;148.10;76.53;;;4.10;99.90;;;;;;5037044;28;20052;-71
2024/01/06 08:23:11;;;;;;;258.17;123.57;;;4.30;99.90;;;;;;5035499;28;20029;-73
2024/01/06 08:25:38;;;;;;;117.53;64.28;;;4.60;99.90;;;;;;5037540;28;20120;-76
2024/01/06 08:28:05;;;;;;;107.90;57.65;;;4.60;99.90;;;;;;5034304;28;20072;-71
2024/01/06 08:30:33;;;;;;;112.45;60.08;;;4.30;99.90;;;;;;5034342;28;20037;-69
2024/01/06 08:33:01;;;;;;;276.73;130.40;;;4.40;99.90;;;;;;5027768;28;20050;-69
2024/01/06 08:35:30;;;;;;;350.92;176.23;;;4.60;99.90;;;;;;5014390;28;20128;-69
2024/01/06 08:38:00;;;;;;;300.55;151.63;;;4.70;99.90;;;;;;5037556;28;20103;-74
2024/01/06 08:40:53;;;;;;;187.35;108.60;;;4.80;99.90;;;;;;5035862;28;20071;-72
2024/01/06 08:43:26;;;;;;;116.35;65.90;;;4.70;99.90;;;;;;5035939;28;20039;-72
2024/01/06 08:45:54;;;;;;;107.32;59.95;;;4.70;99.90;;;;;;5040118;28;20049;-72
2024/01/06 08:48:22;;;;;;;109.07;59.25;;;4.50;99.90;;;;;;5019269;28;20038;-79
2024/01/06 08:50:50;;;;;;;113.18;62.05;;;4.60;99.90;;;;;;5032884;28;20040;-70
2024/01/06 08:53:18;;;;;;;113.03;62.75;;;4.50;99.90;;;;;;5029526;28;20037;-73
2024/01/06 08:55:45;;;;;;;107.13;61.15;;;4.40;99.90;;;;;;5024226;28;20045;-74
2024/01/06 08:58:13;;;;;;;113.25;63.75;;;4.50;99.90;;;;;;5036054;28;20107;-73
2024/01/06 09:00:41;;;;;;;113.53;60.33;;;4.50;99.90;;;;;;5036855;28;20033;-72
2024/01/06 09:03:09;;;;;;;111.20;63.33;;;4.40;99.90;;;;;;5035697;28;20420;-75
2024/01/06 09:05:37;;;;;;;103.32;60.47;;;4.40;99.90;;;;;;5034394;28;20051;-73
2024/01/06 09:08:04;;;;;;;107.28;62.72;;;4.60;99.90;;;;;;5035404;28;20033;-75
2024/01/06 09:10:32;;;;;;;112.10;63.03;;;4.70;99.90;;;;;;5041197;28;20154;-71
2024/01/06 09:13:01;;;;;;;113.35;63.72;;;4.60;99.90;;;;;;5035229;28;20404;-74
2024/01/06 09:15:28;;;;;;;116.15;66.00;;;4.50;99.90;;;;;;5033635;28;20211;-75
2024/01/06 09:17:56;;;;;;;115.20;66.72;;;4.60;99.90;;;;;;5040327;28;20094;-76
2024/01/06 09:20:23;;;;;;;117.85;67.90;;;4.60;99.90;;;;;;5036192;28;20088;-71
2024/01/06 09:22:51;;;;;;;108.20;66.95;;;4.70;99.90;;;;;;5037142;28;20041;-87
2024/01/06 09:25:18;;;;;;;119.68;66.82;;;4.80;99.90;;;;;;5043925;28;20057;-76
2024/01/06 09:27:46;;;;;;;132.93;71.82;;;4.60;99.90;;;;;;5040888;28;20041;-79
2024/01/06 09:30:13;;;;;;;119.80;71.63;;;4.70;99.90;;;;;;5035352;28;20849;-79
2024/01/06 09:32:41;;;;;;;121.03;69.15;;;4.70;99.90;;;;;;5037941;28;20644;-78
2024/01/06 09:35:08;;;;;;;115.60;69.65;;;4.80;99.90;;;;;;5038734;28;20032;-79
2024/01/06 09:37:35;;;;;;;112.75;65.78;;;4.90;99.90;;;;;;5032356;28;20057;-74
2024/01/06 09:40:03;;;;;;;186.77;101.00;;;4.90;99.90;;;;;;5033531;28;20111;-77
2024/01/06 09:42:30;;;;;;;205.40;116.10;;;5.20;99.90;;;;;;5028100;28;20050;-73
2024/01/06 09:44:58;;;;;;;129.38;79.65;;;5.40;99.90;;;;;;5037186;28;20401;-69
2024/01/06 09:47:28;;;;;;;117.35;70.05;;;5.40;99.90;;;;;;5041000;28;20231;-80
2024/01/06 09:50:00;;;;;;;109.10;66.65;;;5.40;99.90;;;;;;5034324;28;20041;-80
2024/01/06 09:52:29;;;;;;;116.10;69.30;;;5.00;99.90;;;;;;5035883;28;20033;-79
2024/01/06 09:54:59;;;;;;;111.25;70.00;;;5.10;99.90;;;;;;5030302;28;20043;-76
2024/01/06 09:57:27;;;;;;;118.72;69.82;;;5.10;99.90;;;;;;5033255;28;20072;-80
2024/01/06 09:59:56;;;;;;;107.53;66.68;;;5.30;99.90;;;;;;5034073;28;20037;-81
2024/01/06 10:02:24;;;;;;;120.53;71.75;;;5.40;99.90;;;;;;5028547;28;20029;-79
2024/01/06 10:04:52;;;;;;;105.93;64.13;;;5.60;99.90;;;;;;5036440;28;20439;-78
2024/01/06 10:07:19;;;;;;;115.13;68.97;;;5.60;99.90;;;;;;5028011;28;20044;-78
2024/01/06 10:09:46;;;;;;;117.78;69.13;;;5.70;99.90;;;;;;5029953;28;20037;-78
2024/01/06 10:12:14;;;;;;;118.10;73.30;;;5.60;99.90;;;;;;5038253;28;20025;-78
2024/01/06 10:14:41;;;;;;;122.50;73.40;;;5.40;99.90;;;;;;5025939;28;20038;-81
2024/01/06 10:17:08;;;;;;;101.20;67.18;;;5.60;99.90;;;;;;5034508;28;20033;-79
2024/01/06 10:19:38;;;;;;;104.57;66.38;;;5.80;99.90;;;;;;5037299;28;20052;-78
2024/01/06 10:22:06;;;;;;;103.20;65.90;;;5.80;99.90;;;;;;5033366;28;20047;-76
2024/01/06 10:24:37;;;;;;;116.03;73.85;;;5.90;99.90;;;;;;5037048;28;20357;-81
2024/01/06 10:27:05;;;;;;;109.53;65.72;;;6.00;99.90;;;;;;5036244;28;20411;-79
2024/01/06 10:29:32;;;;;;;106.07;64.90;;;5.90;99.90;;;;;;5028439;28;20052;-81
2024/01/06 10:32:00;;;;;;;101.65;67.28;;;6.00;99.90;;;;;;5034511;28;20033;-78
2024/01/06 10:34:28;;;;;;;104.07;65.03;;;6.00;99.90;;;;;;5040416;28;20040;-73
2024/01/06 10:36:57;;;;;;;105.72;67.45;;;6.00;99.90;;;;;;5033485;28;20041;-77
2024/01/06 10:39:41;;;;;;;102.10;69.32;;;6.10;99.90;;;;;;5039777;28;20112;-74
2024/01/06 10:42:12;;;;;;;108.95;67.20;;;5.90;99.90;;;;;;5042279;28;20057;-83
2024/01/06 10:44:40;;;;;;;109.32;70.43;;;6.00;99.90;;;;;;5028926;28;20046;-81
2024/01/06 10:47:13;;;;;;;111.38;74.07;;;6.10;99.90;;;;;;5032441;28;20151;-72
2024/01/06 10:49:41;;;;;;;120.60;75.78;;;6.00;99.90;;;;;;5039674;28;20033;-83
2024/01/06 10:52:09;;;;;;;131.38;77.68;;;6.10;99.90;;;;;;5037965;28;20080;-86
2024/01/06 10:54:38;;;;;;;123.70;77.93;;;6.20;99.90;;;;;;5037936;28;20041;-83
2024/01/06 10:57:07;;;;;;;125.03;79.72;;;6.30;99.90;;;;;;5026125;28;20040;-81
2024/01/06 10:59:35;;;;;;;120.97;80.10;;;6.20;99.90;;;;;;5041364;28;20423;-79
2024/01/06 11:02:03;;;;;;;119.85;77.75;;;6.30;99.90;;;;;;5041902;28;20064;-80
2024/01/06 11:04:31;;;;;;;119.25;77.57;;;6.50;99.90;;;;;;5044300;28;20037;-82
2024/01/06 11:06:59;;;;;;;118.50;79.93;;;6.60;99.90;;;;;;5039895;28;20052;-78
2024/01/06 11:09:34;;;;;;;122.65;79.35;;;6.60;99.90;;;;;;5043496;28;20390;-83
2024/01/06 11:12:02;;;;;;;116.78;77.30;;;6.60;99.90;;;;;;5041681;28;20033;-80
2024/01/06 11:14:29;;;;;;;127.05;81.50;;;6.80;99.90;;;;;;5037821;28;20118;-77
2024/01/06 11:16:56;;;;;;;132.63;83.30;;;6.80;99.90;;;;;;5045133;28;20418;-76
2024/01/06 11:19:36;;;;;;;120.13;80.97;;;6.80;99.90;;;;;;5031797;28;20117;-74
2024/01/06 11:22:20;;;;;;;121.07;79.63;;;6.80;99.90;;;;;;5041628;28;20432;-82
2024/01/06 11:24:52;;;;;;;119.55;81.82;;;6.60;99.90;;;;;;5038596;28;20100;-80
2024/01/06 11:27:28;;;;;;;123.55;78.10;;;6.70;99.90;;;;;;5035428;28;20033;-81
2024/01/06 11:30:05;;;;;;;130.15;78.95;;;6.60;99.90;;;;;;5042190;28;20489;-84
2024/01/06 11:32:38;;;;;;;126.15;83.97;;;6.60;99.90;;;;;;5036736;28;20033;-80
2024/01/06 11:35:10;;;;;;;121.85;83.95;;;6.70;99.90;;;;;;5034724;28;20147;-77
2024/01/06 11:37:40;;;;;;;125.93;83.40;;;6.80;99.90;;;;;;5038528;28;20060;-76
2024/01/06 11:40:14;;;;;;;118.57;82.55;;;6.80;99.90;;;;;;5040487;28;20118;-83
2024/01/06 11:42:42;;;;;;;136.50;85.22;;;6.90;99.90;;;;;;5036081;28;20436;-80
2024/01/06 11:45:10;;;;;;;131.07;86.78;;;7.00;99.90;;;;;;5042666;28;20082;-80
2024/01/06 11:47:38;;;;;;;122.07;84.28;;;7.10;99.90;;;;;;5045913;28;20033;-78
2024/01/06 11:50:06;;;;;;;127.40;81.85;;;7.20;99.90;;;;;;5032958;28;20033;-81
2024/01/06 11:52:34;;;;;;;128.55;81.85;;;7.50;99.90;;;;;;5030240;28;20957;-83
2024/01/06 11:55:02;;;;;;;131.10;83.07;;;7.70;99.90;;;;;;5044606;28;20128;-81
2024/01/06 11:57:30;;;;;;;129.40;83.32;;;8.20;99.90;;;;;;5040944;28;20094;-84
2024/01/06 11:59:57;;;;;;;143.30;92.32;;;8.80;99.90;;;;;;5018592;28;20072;-75
2024/01/06 12:02:25;;;;;;;133.38;90.82;;;9.80;99.90;;;;;;5036011;28;20096;-74
2024/01/06 12:04:53;;;;;;;125.38;86.47;;;10.60;99.90;;;;;;5040039;28;20037;-82
2024/01/06 12:07:24;;;;;;;110.65;81.43;;;10.50;99.90;;;;;;5034525;28;20041;-81
2024/01/06 12:10:02;;;;;;;118.38;80.43;;;10.50;99.90;;;;;;5026945;28;20428;-71
2024/01/06 12:12:29;;;;;;;117.78;83.05;;;10.60;99.90;;;;;;5038050;28;20486;-80
2024/01/06 12:14:57;;;;;;;120.75;80.03;;;9.90;99.90;;;;;;5027773;28;20049;-74
2024/01/06 12:17:29;;;;;;;122.80;81.47;;;9.30;99.90;;;;;;5041659;28;20539;-76
2024/01/06 12:19:57;;;;;;;147.98;93.70;;;8.90;99.90;;;;;;5036304;28;20117;-77
2024/01/06 12:22:25;;;;;;;133.88;87.45;;;9.30;99.90;;;;;;5033279;28;20051;-74
2024/01/06 12:24:52;;;;;;;123.15;83.32;;;9.30;99.90;;;;;;5031099;28;20468;-74
2024/01/06 12:27:21;;;;;;;144.43;97.53;;;9.40;99.90;;;;;;5035448;28;20025;-75
2024/01/06 12:29:48;;;;;;;119.95;84.72;;;9.30;99.90;;;;;;5031897;28;20543;-76
2024/01/06 12:32:18;;;;;;;116.57;78.78;;;9.00;99.90;;;;;;5036396;28;20063;-74